TimeChST,TemperatureF,Dew PointF,Humidity,Sea Level PressureIn,VisibilityMPH,Wind Direction,Wind SpeedMPH,Gust SpeedMPH,PrecipitationIn,Events,Conditions,WindDirDegrees,DateUTC
12:54 AM,82.0,75.0,79,29.94,10.0,ENE,13.8,-,N/A,,Scattered Clouds,60,2012-11-10 14:54:00
1:54 AM,82.0,75.0,79,29.93,10.0,NE,9.2,-,N/A,,Scattered Clouds,50,2012-11-10 15:54:00
2:54 AM,82.0,73.9,76,29.92,10.0,NE,10.4,-,N/A,,Mostly Cloudy,50,2012-11-10 16:54:00
3:54 AM,82.0,75.0,79,29.92,7.0,ENE,13.8,-,N/A,,Mostly Cloudy,60,2012-11-10 17:54:00
4:54 AM,81.0,75.9,85,29.91,10.0,ENE,8.1,-,0.07,,Scattered Clouds,60,2012-11-10 18:54:00
5:39 AM,-9999,-9999,N/A,29.86,6.0,ENE,6.9,-,0.01,Rain,Rain,60,2012-11-10 19:39:00
5:54 AM,79.0,71.1,77,29.93,7.0,East,3.5,-,0.07,,Mostly Cloudy,90,2012-11-10 19:54:00
6:01 AM,78.8,77.0,94,29.87,10.0,NE,9.2,-,N/A,,Overcast,50,2012-11-10 20:01:00
6:15 AM,78.8,77.0,94,29.87,10.0,ENE,10.4,18.4,N/A,,Mostly Cloudy,60,2012-11-10 20:15:00
6:54 AM,79.0,77.0,94,29.95,10.0,East,12.7,-,N/A,,Mostly Cloudy,80,2012-11-10 20:54:00
7:23 AM,-9999,-9999,N/A,29.89,10.0,East,10.4,-,N/A,,Scattered Clouds,80,2012-11-10 21:23:00
7:30 AM,78.8,77.0,94,29.90,10.0,East,13.8,-,N/A,,Mostly Cloudy,80,2012-11-10 21:30:00
7:54 AM,79.0,77.0,94,29.97,10.0,East,11.5,-,N/A,,Scattered Clouds,80,2012-11-10 21:54:00
8:54 AM,86.0,77.0,74,29.98,10.0,East,11.5,-,N/A,,Scattered Clouds,100,2012-11-10 22:54:00
9:54 AM,87.1,77.0,72,29.98,10.0,East,11.5,-,N/A,,Scattered Clouds,90,2012-11-10 23:54:00
10:54 AM,88.0,77.0,70,29.96,10.0,ENE,12.7,-,N/A,,Scattered Clouds,70,2012-11-11 00:54:00
11:07 AM,87.8,75.2,66,29.89,10.0,East,15.0,-,N/A,,Mostly Cloudy,90,2012-11-11 01:07:00
11:18 AM,87.8,77.0,70,29.89,10.0,East,15.0,-,N/A,,Scattered Clouds,80,2012-11-11 01:18:00
11:54 AM,87.1,75.9,69,29.94,10.0,ENE,15.0,-,N/A,,Scattered Clouds,70,2012-11-11 01:54:00
12:54 PM,88.0,77.0,70,29.93,10.0,ENE,13.8,-,N/A,,Scattered Clouds,70,2012-11-11 02:54:00
1:54 PM,87.1,75.9,69,29.91,10.0,ENE,11.5,-,N/A,,Scattered Clouds,70,2012-11-11 03:54:00
2:54 PM,87.1,77.0,72,29.89,10.0,ENE,13.8,-,N/A,,Scattered Clouds,70,2012-11-11 04:54:00
3:54 PM,86.0,75.9,72,29.91,10.0,ENE,13.8,-,N/A,,Partly Cloudy,70,2012-11-11 05:54:00
4:54 PM,84.9,75.9,74,29.91,10.0,ENE,12.7,-,N/A,,Scattered Clouds,60,2012-11-11 06:54:00
5:54 PM,84.0,75.0,74,29.92,10.0,East,9.2,-,N/A,,Scattered Clouds,80,2012-11-11 07:54:00
6:54 PM,82.9,75.0,77,29.94,10.0,ENE,10.4,-,N/A,,Scattered Clouds,60,2012-11-11 08:54:00
7:54 PM,82.9,75.0,77,29.96,10.0,NE,12.7,-,0.01,,Mostly Cloudy,50,2012-11-11 09:54:00
8:54 PM,82.0,77.0,85,29.97,10.0,East,10.4,-,0.04,,Mostly Cloudy,80,2012-11-11 10:54:00
9:54 PM,82.0,75.9,82,29.97,10.0,ENE,11.5,-,N/A,,Mostly Cloudy,60,2012-11-11 11:54:00
10:54 PM,82.0,75.9,82,29.97,10.0,ENE,11.5,-,N/A,,Scattered Clouds,60,2012-11-11 12:54:00
11:54 PM,82.0,75.0,79,29.97,10.0,ENE,13.8,-,N/A,,Scattered Clouds,70,2012-11-11 13:54:00